aviador You're here:

KD55 Decoded Metar

in
Report Time2018-01-17 06:35:00
UTC Time2018-01-17 06:42:57
Flight Rules vfr VFR
Wind220° at 18 kt
W.Rank220° ranks 15
Current wind is above 220° avg. (9.5)
Visibility9999 m
Phenomena:N/A
Clouds:N/A
Expected CloudBase > 1,200 ft AGL from Temp-Dew spread
CeilingNone
Temp-16°C
Dew Point-19°C (78% RH)
AAT-26.0°C
QNH1019 hPa
Raw Report
KD55 170635Z AUTO 22018KT 10SM CLR M16/M19 A3009 RMK AO2=

Extra information for KD55:More info

Social comments